createdAt,value
2023-01-09T00:00:36.419Z,98600.44
2023-01-09T00:03:38.697Z,98604.53
2023-01-09T00:06:43.407Z,98601.25
2023-01-09T00:09:45.592Z,98609.19
2023-01-09T00:12:47.816Z,98601.88
2023-01-09T00:15:50.003Z,98596.81
2023-01-09T00:18:53.376Z,98608.19
2023-01-09T00:21:55.561Z,98601.72
2023-01-09T00:24:57.771Z,98600.72
2023-01-09T00:27:59.922Z,98605.78
2023-01-09T00:31:04.193Z,98601.13
2023-01-09T00:34:10.487Z,98604.97
2023-01-09T00:37:13.200Z,98603.41
2023-01-09T00:40:17.045Z,98595.88
2023-01-09T00:43:19.905Z,98594.06
2023-01-09T00:46:25.558Z,98593.44
2023-01-09T00:49:32.910Z,98588.75
2023-01-09T00:52:35.975Z,98583.25
2023-01-09T00:55:38.549Z,98575.16
2023-01-09T00:58:40.732Z,98570.03
2023-01-09T01:01:43.030Z,98579.81
2023-01-09T01:05:04.053Z,98572.06
2023-01-09T01:08:14.292Z,98573.31
2023-01-09T01:11:17.171Z,98565.16
2023-01-09T01:14:19.335Z,98565.38
2023-01-09T01:17:21.583Z,98569.00
2023-01-09T01:20:23.745Z,98560.66
2023-01-09T01:23:26.027Z,98561.47
2023-01-09T01:26:28.195Z,98556.34
2023-01-09T01:29:30.465Z,98559.81
2023-01-09T01:32:32.644Z,98551.25
2023-01-09T01:35:35.015Z,98546.34
2023-01-09T01:38:37.204Z,98537.81
2023-01-09T01:41:39.444Z,98534.56
2023-01-09T01:45:06.747Z,98529.28
2023-01-09T01:48:18.455Z,98526.59
2023-01-09T01:51:21.491Z,98517.03
2023-01-09T01:54:26.511Z,98508.91
2023-01-09T01:57:28.833Z,98511.94
2023-01-09T02:00:40.072Z,98497.91
2023-01-09T02:03:43.564Z,98497.91
2023-01-09T02:06:47.559Z,98493.84
2023-01-09T02:09:49.948Z,98485.66
2023-01-09T02:12:52.165Z,98494.00
2023-01-09T02:16:03.593Z,98485.25
2023-01-09T02:19:24.523Z,98483.03
2023-01-09T02:22:45.298Z,98480.78
2023-01-09T02:25:56.583Z,98468.53
2023-01-09T02:29:11.057Z,98471.38
2023-01-09T02:32:31.202Z,98469.59
2023-01-09T02:35:42.566Z,98467.38
2023-01-09T02:38:56.501Z,98473.25
2023-01-09T02:42:24.427Z,98474.53
2023-01-09T02:45:26.808Z,98463.19
2023-01-09T02:48:30.045Z,98459.19
2023-01-09T02:51:51.650Z,98456.94
2023-01-09T02:55:10.617Z,98460.81
2023-01-09T02:58:57.817Z,98456.34
2023-01-09T03:02:18.669Z,98449.22
2023-01-09T03:05:43.063Z,98448.59
2023-01-09T03:08:57.005Z,98441.50
2023-01-09T03:12:04.916Z,98444.13
2023-01-09T03:15:12.127Z,98434.16
2023-01-09T03:18:15.456Z,98432.72
2023-01-09T03:21:18.341Z,98429.25
2023-01-09T03:24:20.510Z,98428.63
2023-01-09T03:27:22.719Z,98419.09
2023-01-09T03:30:25.685Z,98423.75
2023-01-09T03:33:28.917Z,98419.28
2023-01-09T03:36:31.179Z,98425.00
2023-01-09T03:39:33.472Z,98429.88
2023-01-09T03:42:35.655Z,98422.53
2023-01-09T03:45:38.173Z,98423.78
2023-01-09T03:48:40.418Z,98423.56
2023-01-09T03:51:42.595Z,98417.47
2023-01-09T03:54:44.792Z,98424.41
2023-01-09T03:57:46.964Z,98413.84
2023-01-09T04:00:50.631Z,98406.50
2023-01-09T04:03:53.005Z,98403.28
2023-01-09T04:06:55.200Z,98399.78
2023-01-09T04:09:57.411Z,98396.72
2023-01-09T04:12:59.559Z,98397.47
2023-01-09T04:16:01.756Z,98394.81
2023-01-09T04:19:04.058Z,98392.37
2023-01-09T04:22:06.248Z,98399.69
2023-01-09T04:25:08.898Z,98397.47
2023-01-09T04:28:11.131Z,98402.75
2023-01-09T04:31:13.340Z,98404.62
2023-01-09T04:34:15.531Z,98407.87
2023-01-09T04:37:17.723Z,98394.88
2023-01-09T04:40:20.061Z,98393.47
2023-01-09T04:43:22.231Z,98398.78
2023-01-09T04:46:24.416Z,98397.78
2023-01-09T04:49:26.906Z,98404.25
2023-01-09T04:52:29.345Z,98406.50
2023-01-09T04:55:31.582Z,98408.94
2023-01-09T04:58:33.785Z,98414.22
2023-01-09T05:01:36.123Z,98418.69
2023-01-09T05:04:38.361Z,98416.84
2023-01-09T05:07:40.932Z,98413.63
2023-01-09T05:10:43.090Z,98419.09
2023-01-09T05:13:45.309Z,98410.94
2023-01-09T05:16:47.949Z,98399.75
2023-01-09T05:19:50.133Z,98407.50
2023-01-09T05:22:52.314Z,98403.47
2023-01-09T05:25:54.515Z,98406.50
2023-01-09T05:28:56.749Z,98404.47
2023-01-09T05:31:59.047Z,98398.38
2023-01-09T05:35:01.270Z,98395.53
2023-01-09T05:38:03.403Z,98403.66
2023-01-09T05:41:05.781Z,98401.81
2023-01-09T05:44:07.994Z,98396.97
2023-01-09T05:47:10.178Z,98392.47
2023-01-09T05:50:13.349Z,98375.41
2023-01-09T05:53:15.644Z,98379.84
2023-01-09T05:56:17.840Z,98376.78
2023-01-09T05:59:20.012Z,98377.81
2023-01-09T06:02:22.434Z,98380.88
2023-01-09T06:05:24.756Z,98381.47
2023-01-09T06:08:26.919Z,98382.50
2023-01-09T06:11:29.361Z,98384.13
2023-01-09T06:14:31.547Z,98375.78
2023-01-09T06:17:33.743Z,98381.47
2023-01-09T06:20:35.937Z,98364.81
2023-01-09T06:23:38.188Z,98386.75
2023-01-09T06:26:40.393Z,98397.56
2023-01-09T06:29:42.594Z,98399.00
2023-01-09T06:32:44.765Z,98397.34
2023-01-09T06:35:46.953Z,98394.50
2023-01-09T06:38:49.146Z,98407.31
2023-01-09T06:41:51.352Z,98422.56
2023-01-09T06:44:53.516Z,98416.47
2023-01-09T06:47:56.294Z,98422.78
2023-01-09T06:50:58.419Z,98427.25
2023-01-09T06:54:00.634Z,98419.72
2023-01-09T06:57:02.869Z,98428.69
2023-01-09T07:00:05.496Z,98427.50
2023-01-09T07:03:07.740Z,98442.53
2023-01-09T07:06:10.157Z,98433.38
2023-01-09T07:09:13.404Z,98431.37
2023-01-09T07:12:15.660Z,98429.75
2023-01-09T07:15:17.853Z,98431.97
2023-01-09T07:18:20.539Z,98427.28
2023-01-09T07:21:22.848Z,98425.06
2023-01-09T07:24:25.081Z,98417.53
2023-01-09T07:27:27.258Z,98410.88
2023-01-09T07:30:29.533Z,98409.44
2023-01-09T07:33:31.748Z,98401.72
2023-01-09T07:36:33.915Z,98401.72
2023-01-09T07:39:36.066Z,98399.28
2023-01-09T07:42:38.359Z,98393.78
2023-01-09T07:45:40.547Z,98394.22
2023-01-09T07:48:42.753Z,98396.62
2023-01-09T07:51:45.790Z,98388.91
2023-01-09T07:54:47.966Z,98391.94
2023-01-09T07:57:50.905Z,98380.19
2023-01-09T08:00:53.122Z,98370.84
2023-01-09T08:03:55.331Z,98372.06
2023-01-09T08:06:57.538Z,98374.31
2023-01-09T08:09:59.738Z,98367.59
2023-01-09T08:13:01.944Z,98383.22
2023-01-09T08:16:04.458Z,98382.00
2023-01-09T08:19:06.767Z,98382.41
2023-01-09T08:22:08.971Z,98369.41
2023-01-09T08:25:12.433Z,98370.03
2023-01-09T08:28:14.932Z,98360.25
2023-01-09T08:31:17.127Z,98370.84
2023-01-09T08:34:19.327Z,98355.19
2023-01-09T08:37:21.583Z,98364.94
2023-01-09T08:40:23.875Z,98377.94
2023-01-09T08:43:44.339Z,98372.03
2023-01-09T08:47:05.007Z,98371.22
2023-01-09T08:50:07.754Z,98348.31
2023-01-09T08:53:10.582Z,98379.38
2023-01-09T08:56:12.840Z,98374.50
2023-01-09T08:59:16.390Z,98389.28
2023-01-09T09:02:18.637Z,98379.97
2023-01-09T09:05:22.056Z,98371.84
2023-01-09T09:08:24.263Z,98374.28
2023-01-09T09:11:26.388Z,98372.03
2023-01-09T09:14:47.085Z,98360.66
2023-01-09T09:17:51.076Z,98357.22
2023-01-09T09:20:53.274Z,98369.78
2023-01-09T09:23:57.868Z,98356.41
2023-01-09T09:27:00.025Z,98350.31
2023-01-09T09:30:02.659Z,98340.56
2023-01-09T09:33:05.105Z,98332.03
2023-01-09T09:36:07.641Z,98321.47
2023-01-09T09:39:10.055Z,98317.41
2023-01-09T09:43:01.712Z,98313.56
2023-01-09T09:46:28.789Z,98308.06
2023-01-09T09:49:58.793Z,98309.91
2023-01-09T09:53:23.312Z,98307.22
2023-01-09T09:56:26.569Z,98306.44
2023-01-09T09:59:33.395Z,98296.88
2023-01-09T10:03:03.648Z,98298.75
2023-01-09T10:06:16.048Z,98295.28
2023-01-09T10:09:21.236Z,98305.81
2023-01-09T10:12:28.935Z,98302.16
2023-01-09T10:16:13.886Z,98287.78
2023-01-09T10:19:47.748Z,98288.59
2023-01-09T10:23:11.011Z,98293.63
2023-01-09T10:26:25.261Z,98298.91
2023-01-09T10:29:38.324Z,98281.66
2023-01-09T10:33:09.565Z,98283.50
2023-01-09T10:36:29.793Z,98278.22
2023-01-09T10:39:39.548Z,98277.41
2023-01-09T10:42:48.012Z,98280.84
2023-01-09T10:45:54.040Z,98271.13
2023-01-09T10:49:00.121Z,98271.13
2023-01-09T10:52:18.381Z,98270.28
2023-01-09T10:56:01.278Z,98262.56
2023-01-09T10:59:03.544Z,98256.91
2023-01-09T11:02:06.453Z,98257.69
2023-01-09T11:05:12.836Z,98247.34
2023-01-09T11:08:27.223Z,98235.38
2023-01-09T11:11:37.474Z,98239.06
2023-01-09T11:14:39.658Z,98241.28
2023-01-09T11:17:42.954Z,98236.22
2023-01-09T11:20:45.417Z,98238.22
2023-01-09T11:23:49.988Z,98233.37
2023-01-09T11:27:25.442Z,98232.56
2023-01-09T11:30:28.266Z,98233.37
2023-01-09T11:33:36.766Z,98219.56
2023-01-09T11:36:38.983Z,98207.00
2023-01-09T11:39:45.714Z,98219.19
2023-01-09T11:43:04.633Z,98198.47
2023-01-09T11:46:13.371Z,98204.16
2023-01-09T11:49:15.433Z,98195.63
2023-01-09T11:52:20.529Z,98202.94
2023-01-09T11:55:29.262Z,98200.50
2023-01-09T11:58:34.895Z,98203.53
2023-01-09T12:01:43.246Z,98194.59
2023-01-09T12:04:54.566Z,98191.56
2023-01-09T12:08:15.034Z,98189.75
2023-01-09T12:11:29.150Z,98181.22
2023-01-09T12:14:34.203Z,98183.25
2023-01-09T12:17:39.064Z,98176.56
2023-01-09T12:21:02.846Z,98179.19
2023-01-09T12:24:26.227Z,98173.72
2023-01-09T12:28:00.446Z,98172.91
2023-01-09T12:31:08.487Z,98165.78
2023-01-09T12:34:21.232Z,98159.47
2023-01-09T12:38:02.637Z,98167.41
2023-01-09T12:41:35.489Z,98169.88
2023-01-09T12:44:50.742Z,98159.91
2023-01-09T12:47:54.582Z,98151.38
2023-01-09T12:51:14.437Z,98144.28
2023-01-09T12:54:21.291Z,98146.09
2023-01-09T12:57:32.579Z,98148.75
2023-01-09T13:00:38.797Z,98141.00
2023-01-09T13:04:18.599Z,98141.84
2023-01-09T13:07:24.496Z,98131.28
2023-01-09T13:10:30.968Z,98129.81
2023-01-09T13:13:47.462Z,98121.06
2023-01-09T13:16:52.439Z,98123.53
2023-01-09T13:19:54.654Z,98141.00
2023-01-09T13:22:56.972Z,98123.94
2023-01-09T13:26:02.735Z,98127.16
2023-01-09T13:29:16.311Z,98121.69
2023-01-09T13:32:59.885Z,98122.91
2023-01-09T13:36:05.019Z,98118.66
2023-01-09T13:39:07.328Z,98130.19
2023-01-09T13:42:36.481Z,98133.03
2023-01-09T13:45:39.920Z,98134.47
2023-01-09T13:48:42.287Z,98126.78
2023-01-09T13:51:44.368Z,98127.59
2023-01-09T13:54:55.468Z,98125.19
2023-01-09T13:58:08.696Z,98121.91
2023-01-09T14:01:23.039Z,98128.00
2023-01-09T14:04:37.956Z,98126.50
2023-01-09T14:07:49.081Z,98130.41
2023-01-09T14:10:56.074Z,98127.06
2023-01-09T14:14:02.762Z,98121.56
2023-01-09T14:17:19.079Z,98132.09
2023-01-09T14:20:27.860Z,98139.00
2023-01-09T14:23:51.161Z,98140.03
2023-01-09T14:26:58.045Z,98138.41
2023-01-09T14:30:31.481Z,98136.59
2023-01-09T14:33:33.992Z,98132.94
2023-01-09T14:36:36.644Z,98126.03
2023-01-09T14:39:42.988Z,98130.44
2023-01-09T14:42:46.611Z,98131.69
2023-01-09T14:45:50.188Z,98120.72
2023-01-09T14:48:59.236Z,98121.47
2023-01-09T14:52:13.095Z,98121.09
2023-01-09T14:55:48.734Z,98116.06
2023-01-09T14:59:03.658Z,98124.75
2023-01-09T15:02:10.157Z,98117.87
2023-01-09T15:05:15.185Z,98119.09
2023-01-09T15:08:21.069Z,98121.75
2023-01-09T15:11:23.344Z,98122.16
2023-01-09T15:14:39.892Z,98120.72
2023-01-09T15:17:43.492Z,98118.09
2023-01-09T15:20:45.826Z,98116.06
2023-01-09T15:23:48.027Z,98119.91
2023-01-09T15:26:55.283Z,98126.78
2023-01-09T15:30:15.577Z,98125.53
2023-01-09T15:33:18.388Z,98121.09
2023-01-09T15:36:30.902Z,98127.81
2023-01-09T15:39:36.853Z,98126.41
2023-01-09T15:42:58.379Z,98130.47
2023-01-09T15:46:00.628Z,98130.88
2023-01-09T15:49:02.853Z,98132.09
2023-01-09T15:52:07.089Z,98130.69
2023-01-09T15:55:37.156Z,98126.81
2023-01-09T15:58:41.657Z,98117.87
2023-01-09T16:01:44.864Z,98119.09
2023-01-09T16:04:47.741Z,98116.69
2023-01-09T16:07:51.252Z,98102.72
2023-01-09T16:10:56.081Z,98107.38
2023-01-09T16:14:23.091Z,98104.16
2023-01-09T16:17:31.230Z,98098.84
2023-01-09T16:20:38.847Z,98091.16
2023-01-09T16:23:54.689Z,98095.59
2023-01-09T16:27:18.856Z,98100.25
2023-01-09T16:30:26.810Z,98106.72
2023-01-09T16:33:31.166Z,98095.59
2023-01-09T16:36:36.897Z,98092.16
2023-01-09T16:39:39.121Z,98083.03
2023-01-09T16:42:59.729Z,98088.50
2023-01-09T16:46:02.026Z,98094.16
2023-01-09T16:49:06.081Z,98087.09
2023-01-09T16:52:17.699Z,98080.00
2023-01-09T16:55:19.920Z,98080.19
2023-01-09T16:58:27.497Z,98077.75
2023-01-09T17:01:30.212Z,98079.56
2023-01-09T17:04:32.477Z,98077.75
2023-01-09T17:07:34.682Z,98068.44
2023-01-09T17:10:36.846Z,98065.41
2023-01-09T17:13:39.041Z,98072.28
2023-01-09T17:16:45.722Z,98072.69
2023-01-09T17:19:48.240Z,98062.75
2023-01-09T17:22:50.788Z,98069.06
2023-01-09T17:26:18.222Z,98062.53
2023-01-09T17:29:20.795Z,98059.91
2023-01-09T17:32:22.951Z,98057.50
2023-01-09T17:35:25.202Z,98057.09
2023-01-09T17:38:27.448Z,98053.00
2023-01-09T17:41:30.824Z,98052.00
2023-01-09T17:44:32.974Z,98050.19
2023-01-09T17:47:35.173Z,98059.94
2023-01-09T17:50:37.391Z,98063.16
2023-01-09T17:53:39.609Z,98064.19
2023-01-09T17:56:44.347Z,98066.81
2023-01-09T17:59:46.558Z,98062.53
2023-01-09T18:02:48.929Z,98053.03
2023-01-09T18:05:51.214Z,98058.09
2023-01-09T18:08:53.565Z,98047.34
2023-01-09T18:11:55.728Z,98055.44
2023-01-09T18:14:58.052Z,98046.53
2023-01-09T18:18:00.220Z,98045.94
2023-01-09T18:21:05.254Z,98034.37
2023-01-09T18:24:08.923Z,98040.06
2023-01-09T18:27:11.139Z,98044.72
2023-01-09T18:30:13.457Z,98043.91
2023-01-09T18:33:17.431Z,98034.78
2023-01-09T18:36:21.602Z,98042.09
2023-01-09T18:39:23.827Z,98038.25
2023-01-09T18:42:26.047Z,98026.47
2023-01-09T18:45:28.257Z,98017.97
2023-01-09T18:48:30.416Z,98020.41
2023-01-09T18:51:35.339Z,98019.97
2023-01-09T18:54:38.453Z,98013.09
2023-01-09T18:57:40.658Z,98010.47
2023-01-09T19:00:43.953Z,97997.28
2023-01-09T19:03:46.472Z,97997.09
2023-01-09T19:06:49.225Z,97987.97
2023-01-09T19:09:51.510Z,97980.25
2023-01-09T19:12:53.730Z,97974.59
2023-01-09T19:15:57.666Z,97978.25
2023-01-09T19:19:02.070Z,97979.03
2023-01-09T19:22:04.545Z,97982.50
2023-01-09T19:25:07.416Z,97981.69
2023-01-09T19:28:09.858Z,97978.22
2023-01-09T19:31:13.285Z,97982.47
2023-01-09T19:34:18.845Z,97984.13
2023-01-09T19:37:21.219Z,97993.00
2023-01-09T19:40:24.514Z,97991.38
2023-01-09T19:43:27.296Z,97994.03
2023-01-09T19:46:30.444Z,97991.56
2023-01-09T19:49:33.042Z,97995.44
2023-01-09T19:52:37.520Z,97988.34
2023-01-09T19:55:39.752Z,97984.72
2023-01-09T19:58:45.065Z,97981.25
2023-01-09T20:01:48.059Z,97977.59
2023-01-09T20:04:50.287Z,97987.13
2023-01-09T20:07:55.572Z,97980.22
2023-01-09T20:11:02.340Z,97979.84
2023-01-09T20:14:04.752Z,97968.09
2023-01-09T20:17:07.027Z,97965.69
2023-01-09T20:20:10.183Z,97969.50
2023-01-09T20:23:16.732Z,97967.06
2023-01-09T20:26:19.970Z,97963.25
2023-01-09T20:29:22.501Z,97958.34
2023-01-09T20:32:24.637Z,97954.09
2023-01-09T20:35:26.877Z,97956.09
2023-01-09T20:38:29.221Z,97949.81
2023-01-09T20:41:31.640Z,97946.59
2023-01-09T20:44:34.082Z,97946.38
2023-01-09T20:47:36.235Z,97944.75
2023-01-09T20:50:38.801Z,97934.00
2023-01-09T20:53:51.227Z,97949.00
2023-01-09T20:56:53.729Z,97938.44
2023-01-09T20:59:55.973Z,97934.25
2023-01-09T21:02:59.316Z,97939.94
2023-01-09T21:06:08.870Z,97937.47
2023-01-09T21:09:11.121Z,97933.84
2023-01-09T21:12:27.532Z,97939.31
2023-01-09T21:15:29.818Z,97932.81
2023-01-09T21:18:32.216Z,97934.63
2023-01-09T21:21:34.502Z,97939.09
2023-01-09T21:24:36.721Z,97931.41
2023-01-09T21:27:41.802Z,97929.38
2023-01-09T21:30:44.552Z,97927.09
2023-01-09T21:33:47.628Z,97932.56
2023-01-09T21:36:50.261Z,97928.75
2023-01-09T21:39:52.459Z,97930.75
2023-01-09T21:43:13.229Z,97927.53
2023-01-09T21:46:35.603Z,97928.53
2023-01-09T21:49:42.511Z,97927.94
2023-01-09T21:52:44.666Z,97921.47
2023-01-09T21:55:46.926Z,97919.00
2023-01-09T21:58:49.366Z,97924.84
2023-01-09T22:01:51.971Z,97923.06
2023-01-09T22:04:59.971Z,97926.69
2023-01-09T22:08:02.138Z,97913.31
2023-01-09T22:11:04.771Z,97928.31
2023-01-09T22:14:07.099Z,97926.69
2023-01-09T22:17:09.398Z,97934.38
2023-01-09T22:20:11.973Z,97934.25
2023-01-09T22:23:14.372Z,97931.19
2023-01-09T22:26:17.933Z,97929.56
2023-01-09T22:29:21.800Z,97925.69
2023-01-09T22:32:24.281Z,97923.28
2023-01-09T22:35:26.836Z,97927.53
2023-01-09T22:38:28.981Z,97926.88
2023-01-09T22:41:31.959Z,97923.88
2023-01-09T22:44:34.154Z,97920.81
2023-01-09T22:47:36.396Z,97924.66
2023-01-09T22:50:38.627Z,97926.28
2023-01-09T22:53:41.101Z,97922.25
2023-01-09T22:56:43.258Z,97916.34
2023-01-09T22:59:45.449Z,97917.53
2023-01-09T23:02:48.529Z,97914.72
2023-01-09T23:06:02.078Z,97914.34
2023-01-09T23:09:04.328Z,97916.56
2023-01-09T23:12:07.758Z,97913.53
2023-01-09T23:15:10.129Z,97909.88
2023-01-09T23:18:12.382Z,97907.59
2023-01-09T23:21:14.565Z,97907.81
2023-01-09T23:24:17.885Z,97905.63
2023-01-09T23:27:20.091Z,97907.47
2023-01-09T23:30:22.328Z,97897.16
2023-01-09T23:33:24.525Z,97896.97
2023-01-09T23:36:26.980Z,97897.37
2023-01-09T23:39:29.232Z,97891.69
2023-01-09T23:42:50.484Z,97892.53
2023-01-09T23:45:52.738Z,97892.13
2023-01-09T23:48:54.902Z,97895.56
2023-01-09T23:51:57.394Z,97890.31
2023-01-09T23:54:59.582Z,97899.84
2023-01-09T23:58:01.758Z,97889.50
